sensor_id;sensor_type;location;lat;lon;timestamp;pressure;altitude;pressure_sealevel;temperature;humidity
48964;BME280;34776;48.180;16.420;2023-09-19T00:01:07;99244.38;;;21.05;62.08
48964;BME280;34776;48.180;16.420;2023-09-19T00:03:34;99245.25;;;20.79;63.37
48964;BME280;34776;48.180;16.420;2023-09-19T00:06:03;99239.56;;;20.46;64.34
48964;BME280;34776;48.180;16.420;2023-09-19T00:08:29;99243.44;;;20.26;65.80
48964;BME280;34776;48.180;16.420;2023-09-19T00:10:54;99244.28;;;20.08;66.81
48964;BME280;34776;48.180;16.420;2023-09-19T00:13:20;99248.19;;;19.96;67.84
48964;BME280;34776;48.180;16.420;2023-09-19T00:15:47;99248.19;;;19.96;68.27
48964;BME280;34776;48.180;16.420;2023-09-19T00:18:16;99245.41;;;19.88;68.97
48964;BME280;34776;48.180;16.420;2023-09-19T00:20:45;99254.63;;;19.67;70.98
48964;BME280;34776;48.180;16.420;2023-09-19T00:23:16;99263.47;;;19.50;72.46
48964;BME280;34776;48.180;16.420;2023-09-19T00:25:41;99263.25;;;19.43;74.36
48964;BME280;34776;48.180;16.420;2023-09-19T00:28:07;99266.03;;;19.24;77.04
48964;BME280;34776;48.180;16.420;2023-09-19T00:30:36;99265.78;;;19.08;79.61
48964;BME280;34776;48.180;16.420;2023-09-19T00:33:05;99262.13;;;18.99;82.01
48964;BME280;34776;48.180;16.420;2023-09-19T00:35:32;99263.75;;;18.82;83.23
48964;BME280;34776;48.180;16.420;2023-09-19T00:37:59;99267.81;;;18.66;85.32
48964;BME280;34776;48.180;16.420;2023-09-19T00:40:29;99270.69;;;18.65;87.18
48964;BME280;34776;48.180;16.420;2023-09-19T00:42:57;99276.38;;;18.52;88.14
48964;BME280;34776;48.180;16.420;2023-09-19T00:45:26;99274.25;;;18.46;89.28
48964;BME280;34776;48.180;16.420;2023-09-19T00:47:53;99274.50;;;18.43;90.24
48964;BME280;34776;48.180;16.420;2023-09-19T00:50:21;99279.91;;;18.33;91.30
48964;BME280;34776;48.180;16.420;2023-09-19T00:52:48;99274.78;;;18.30;92.59
48964;BME280;34776;48.180;16.420;2023-09-19T00:55:15;99289.25;;;18.29;93.33
48964;BME280;34776;48.180;16.420;2023-09-19T00:57:42;99288.09;;;18.22;93.11
48964;BME280;34776;48.180;16.420;2023-09-19T01:00:09;99294.75;;;18.18;93.53
48964;BME280;34776;48.180;16.420;2023-09-19T01:02:45;99291.34;;;18.16;93.80
48964;BME280;34776;48.180;16.420;2023-09-19T01:05:12;99300.56;;;18.23;94.62
48964;BME280;34776;48.180;16.420;2023-09-19T01:07:38;99301.28;;;18.25;94.57
48964;BME280;34776;48.180;16.420;2023-09-19T01:10:11;99302.53;;;18.21;94.38
48964;BME280;34776;48.180;16.420;2023-09-19T01:12:52;99299.41;;;18.16;93.47
48964;BME280;34776;48.180;16.420;2023-09-19T01:15:38;99306.78;;;18.14;93.77
48964;BME280;34776;48.180;16.420;2023-09-19T01:21:05;99308.19;;;18.18;93.78
48964;BME280;34776;48.180;16.420;2023-09-19T01:29:37;99308.31;;;18.07;92.21
48964;BME280;34776;48.180;16.420;2023-09-19T01:32:05;99303.38;;;18.12;92.57
48964;BME280;34776;48.180;16.420;2023-09-19T01:34:55;99311.28;;;18.03;91.46
48964;BME280;34776;48.180;16.420;2023-09-19T01:37:25;99322.56;;;17.97;92.65
48964;BME280;34776;48.180;16.420;2023-09-19T01:40:12;99314.38;;;17.89;93.69
48964;BME280;34776;48.180;16.420;2023-09-19T01:43:12;99307.81;;;17.82;94.54
48964;BME280;34776;48.180;16.420;2023-09-19T01:51:06;99327.53;;;17.61;98.21
48964;BME280;34776;48.180;16.420;2023-09-19T01:53:51;99329.78;;;17.56;99.09
48964;BME280;34776;48.180;16.420;2023-09-19T01:59:26;99334.00;;;17.49;100.00
48964;BME280;34776;48.180;16.420;2023-09-19T02:01:54;99329.44;;;17.40;100.00
48964;BME280;34776;48.180;16.420;2023-09-19T02:04:20;99333.91;;;17.30;100.00
48964;BME280;34776;48.180;16.420;2023-09-19T02:06:45;99324.56;;;17.24;100.00
48964;BME280;34776;48.180;16.420;2023-09-19T02:09:13;99319.84;;;17.16;100.00
48964;BME280;34776;48.180;16.420;2023-09-19T02:11:39;99319.13;;;17.14;100.00
48964;BME280;34776;48.180;16.420;2023-09-19T02:14:06;99315.44;;;17.15;100.00
48964;BME280;34776;48.180;16.420;2023-09-19T02:16:34;99309.75;;;17.09;100.00
48964;BME280;34776;48.180;16.420;2023-09-19T02:18:59;99309.19;;;17.05;100.00
48964;BME280;34776;48.180;16.420;2023-09-19T02:21:25;99315.53;;;17.04;100.00
48964;BME280;34776;48.180;16.420;2023-09-19T02:23:51;99310.88;;;17.06;100.00
48964;BME280;34776;48.180;16.420;2023-09-19T02:26:16;99313.56;;;17.06;100.00
48964;BME280;34776;48.180;16.420;2023-09-19T02:28:44;99308.66;;;17.11;100.00
48964;BME280;34776;48.180;16.420;2023-09-19T02:31:11;99313.75;;;17.14;100.00
48964;BME280;34776;48.180;16.420;2023-09-19T02:33:36;99308.13;;;17.17;100.00
48964;BME280;34776;48.180;16.420;2023-09-19T02:36:02;99325.66;;;17.21;100.00
48964;BME280;34776;48.180;16.420;2023-09-19T02:38:29;99316.34;;;17.25;100.00
48964;BME280;34776;48.180;16.420;2023-09-19T02:40:54;99319.50;;;17.31;100.00
48964;BME280;34776;48.180;16.420;2023-09-19T02:43:20;99324.00;;;17.30;100.00
48964;BME280;34776;48.180;16.420;2023-09-19T02:45:47;99326.56;;;17.32;100.00
48964;BME280;34776;48.180;16.420;2023-09-19T02:48:13;99325.31;;;17.36;100.00
48964;BME280;34776;48.180;16.420;2023-09-19T02:50:40;99324.34;;;17.37;100.00
48964;BME280;34776;48.180;16.420;2023-09-19T02:53:05;99325.63;;;17.42;100.00
48964;BME280;34776;48.180;16.420;2023-09-19T02:55:32;99328.91;;;17.46;100.00
48964;BME280;34776;48.180;16.420;2023-09-19T02:57:57;99321.84;;;17.45;100.00
48964;BME280;34776;48.180;16.420;2023-09-19T03:00:23;99320.84;;;17.46;100.00
48964;BME280;34776;48.180;16.420;2023-09-19T03:02:58;99327.22;;;17.45;100.00
48964;BME280;34776;48.180;16.420;2023-09-19T03:05:24;99319.03;;;17.56;100.00
48964;BME280;34776;48.180;16.420;2023-09-19T03:07:50;99322.44;;;17.58;100.00
48964;BME280;34776;48.180;16.420;2023-09-19T03:10:20;99329.06;;;17.54;100.00
48964;BME280;34776;48.180;16.420;2023-09-19T03:12:46;99327.22;;;17.55;100.00
48964;BME280;34776;48.180;16.420;2023-09-19T03:15:13;99329.78;;;17.56;100.00
48964;BME280;34776;48.180;16.420;2023-09-19T03:17:43;99322.44;;;17.58;100.00
48964;BME280;34776;48.180;16.420;2023-09-19T03:20:08;99326.81;;;17.59;100.00
48964;BME280;34776;48.180;16.420;2023-09-19T03:22:37;99329.50;;;17.59;100.00
48964;BME280;34776;48.180;16.420;2023-09-19T03:25:03;99333.78;;;17.62;100.00
48964;BME280;34776;48.180;16.420;2023-09-19T03:27:35;99336.91;;;17.67;100.00
48964;BME280;34776;48.180;16.420;2023-09-19T03:30:01;99338.47;;;17.70;100.00
48964;BME280;34776;48.180;16.420;2023-09-19T03:32:30;99336.66;;;17.70;100.00
48964;BME280;34776;48.180;16.420;2023-09-19T03:34:57;99344.53;;;17.72;100.00
48964;BME280;34776;48.180;16.420;2023-09-19T03:37:23;99341.31;;;17.78;100.00
48964;BME280;34776;48.180;16.420;2023-09-19T03:39:48;99350.81;;;17.82;100.00
48964;BME280;34776;48.180;16.420;2023-09-19T03:42:14;99345.22;;;17.85;100.00
48964;BME280;34776;48.180;16.420;2023-09-19T03:44:39;99343.38;;;17.95;100.00
48964;BME280;34776;48.180;16.420;2023-09-19T03:47:05;99343.28;;;18.07;100.00
48964;BME280;34776;48.180;16.420;2023-09-19T03:49:32;99345.41;;;18.13;100.00
48964;BME280;34776;48.180;16.420;2023-09-19T03:51:57;99339.19;;;18.22;100.00
48964;BME280;34776;48.180;16.420;2023-09-19T03:54:22;99341.06;;;18.31;100.00
48964;BME280;34776;48.180;16.420;2023-09-19T03:56:48;99341.47;;;18.36;100.00
48964;BME280;34776;48.180;16.420;2023-09-19T03:59:13;99337.81;;;18.37;99.90
48964;BME280;34776;48.180;16.420;2023-09-19T04:01:38;99337.66;;;18.39;99.58
48964;BME280;34776;48.180;16.420;2023-09-19T04:04:04;99346.16;;;18.44;100.00
48964;BME280;34776;48.180;16.420;2023-09-19T04:06:34;99352.09;;;18.48;99.81
48964;BME280;34776;48.180;16.420;2023-09-19T04:09:00;99352.09;;;18.48;98.90
48964;BME280;34776;48.180;16.420;2023-09-19T04:11:26;99353.50;;;18.52;99.00
48964;BME280;34776;48.180;16.420;2023-09-19T04:13:51;99354.09;;;18.55;99.08
48964;BME280;34776;48.180;16.420;2023-09-19T04:16:16;99363.72;;;18.58;98.61
48964;BME280;34776;48.180;16.420;2023-09-19T04:18:44;99365.44;;;18.59;97.95
48964;BME280;34776;48.180;16.420;2023-09-19T04:21:09;99371.53;;;18.61;97.87
48964;BME280;34776;48.180;16.420;2023-09-19T04:23:35;99375.06;;;18.61;98.07
48964;BME280;34776;48.180;16.420;2023-09-19T04:26:03;99377.31;;;18.66;97.90
48964;BME280;34776;48.180;16.420;2023-09-19T04:28:31;99386.09;;;18.68;97.93
48964;BME280;34776;48.180;16.420;2023-09-19T04:31:02;99393.63;;;18.74;98.29
48964;BME280;34776;48.180;16.420;2023-09-19T04:33:28;99396.31;;;18.74;98.13
48964;BME280;34776;48.180;16.420;2023-09-19T04:36:00;99400.00;;;18.73;97.26
48964;BME280;34776;48.180;16.420;2023-09-19T04:38:30;99396.88;;;18.68;98.11
48964;BME280;34776;48.180;16.420;2023-09-19T04:40:58;99404.78;;;18.60;98.13
48964;BME280;34776;48.180;16.420;2023-09-19T04:43:26;99404.47;;;18.43;97.83
48964;BME280;34776;48.180;16.420;2023-09-19T04:45:51;99412.97;;;18.29;98.61
48964;BME280;34776;48.180;16.420;2023-09-19T04:48:23;99412.81;;;18.21;98.84
48964;BME280;34776;48.180;16.420;2023-09-19T04:50:54;99420.28;;;18.17;99.61
48964;BME280;34776;48.180;16.420;2023-09-19T04:53:21;99422.81;;;18.09;99.17
48964;BME280;34776;48.180;16.420;2023-09-19T04:55:51;99424.19;;;18.03;99.00
48964;BME280;34776;48.180;16.420;2023-09-19T04:58:18;99423.34;;;18.03;98.98
48964;BME280;34776;48.180;16.420;2023-09-19T05:00:44;99421.38;;;18.05;99.52
48964;BME280;34776;48.180;16.420;2023-09-19T05:03:10;99423.22;;;18.04;99.00
48964;BME280;34776;48.180;16.420;2023-09-19T05:05:35;99416.59;;;18.09;100.00
48964;BME280;34776;48.180;16.420;2023-09-19T05:08:01;99422.38;;;18.14;100.00
48964;BME280;34776;48.180;16.420;2023-09-19T05:10:30;99433.44;;;18.11;99.28
48964;BME280;34776;48.180;16.420;2023-09-19T05:12:55;99439.94;;;18.08;99.36
48964;BME280;34776;48.180;16.420;2023-09-19T05:15:22;99441.91;;;18.06;99.92
48964;BME280;34776;48.180;16.420;2023-09-19T05:17:48;99449.25;;;18.04;99.97
48964;BME280;34776;48.180;16.420;2023-09-19T05:20:16;99444.28;;;17.99;100.00
48964;BME280;34776;48.180;16.420;2023-09-19T05:22:42;99444.84;;;17.93;100.00
48964;BME280;34776;48.180;16.420;2023-09-19T05:25:08;99448.50;;;17.92;100.00
48964;BME280;34776;48.180;16.420;2023-09-19T05:27:34;99444.25;;;17.90;100.00
48964;BME280;34776;48.180;16.420;2023-09-19T05:29:59;99446.72;;;17.81;100.00
48964;BME280;34776;48.180;16.420;2023-09-19T05:32:25;99450.53;;;17.79;100.00
48964;BME280;34776;48.180;16.420;2023-09-19T05:34:50;99450.38;;;17.80;100.00
48964;BME280;34776;48.180;16.420;2023-09-19T05:37:18;99462.00;;;17.81;100.00
48964;BME280;34776;48.180;16.420;2023-09-19T05:39:44;99453.22;;;17.79;100.00
48964;BME280;34776;48.180;16.420;2023-09-19T05:42:09;99461.53;;;17.76;100.00
48964;BME280;34776;48.180;16.420;2023-09-19T05:44:35;99455.13;;;17.67;100.00
48964;BME280;34776;48.180;16.420;2023-09-19T05:47:04;99451.41;;;17.58;100.00
48964;BME280;34776;48.180;16.420;2023-09-19T05:49:29;99448.84;;;17.57;100.00
48964;BME280;34776;48.180;16.420;2023-09-19T05:51:54;99453.50;;;17.55;100.00
48964;BME280;34776;48.180;16.420;2023-09-19T05:54:22;99444.84;;;17.51;100.00
48964;BME280;34776;48.180;16.420;2023-09-19T05:56:47;99446.44;;;17.54;100.00
48964;BME280;34776;48.180;16.420;2023-09-19T05:59:13;99446.75;;;17.60;100.00
48964;BME280;34776;48.180;16.420;2023-09-19T06:01:42;99449.16;;;17.63;100.00
48964;BME280;34776;48.180;16.420;2023-09-19T06:04:07;99451.59;;;17.67;100.00
48964;BME280;34776;48.180;16.420;2023-09-19T06:06:33;99451.63;;;17.76;100.00
48964;BME280;34776;48.180;16.420;2023-09-19T06:09:02;99453.22;;;17.79;100.00
48964;BME280;34776;48.180;16.420;2023-09-19T06:27:08;99473.72;;;18.41;100.00
48964;BME280;34776;48.180;16.420;2023-09-19T07:25:59;99524.00;;;20.36;84.20
48964;BME280;34776;48.180;16.420;2023-09-19T07:28:31;99534.34;;;20.40;84.47
48964;BME280;34776;48.180;16.420;2023-09-19T07:30:56;99533.63;;;20.38;84.19
48964;BME280;34776;48.180;16.420;2023-09-19T07:33:22;99539.59;;;20.42;84.57
48964;BME280;34776;48.180;16.420;2023-09-19T07:35:51;99539.69;;;20.50;84.73
48964;BME280;34776;48.180;16.420;2023-09-19T07:38:18;99550.25;;;20.43;83.79
48964;BME280;34776;48.180;16.420;2023-09-19T07:51:59;99568.00;;;20.36;82.32
48964;BME280;34776;48.180;16.420;2023-09-19T07:54:24;99567.63;;;20.31;82.68
48964;BME280;34776;48.180;16.420;2023-09-19T07:56:50;99566.06;;;20.28;82.26
48964;BME280;34776;48.180;16.420;2023-09-19T07:59:17;99562.81;;;20.25;82.10
48964;BME280;34776;48.180;16.420;2023-09-19T08:09:31;99576.09;;;20.83;81.33
48964;BME280;34776;48.180;16.420;2023-09-19T10:20:59;99654.31;;;25.60;54.16
48964;BME280;34776;48.180;16.420;2023-09-19T10:23:28;99657.97;;;25.75;53.33
48964;BME280;34776;48.180;16.420;2023-09-19T10:26:01;99659.19;;;25.72;52.14
48964;BME280;34776;48.180;16.420;2023-09-19T10:28:27;99652.16;;;25.55;51.18
48964;BME280;34776;48.180;16.420;2023-09-19T10:30:54;99653.81;;;25.64;52.27
48964;BME280;34776;48.180;16.420;2023-09-19T10:33:23;99658.59;;;26.08;50.86
48964;BME280;34776;48.180;16.420;2023-09-19T10:35:51;99657.53;;;26.32;50.07
48964;BME280;34776;48.180;16.420;2023-09-19T10:38:23;99644.09;;;26.31;49.70
48964;BME280;34776;48.180;16.420;2023-09-19T10:40:51;99648.69;;;26.68;49.25
48964;BME280;34776;48.180;16.420;2023-09-19T10:43:19;99648.59;;;26.62;49.09
48964;BME280;34776;48.180;16.420;2023-09-19T10:45:47;99655.19;;;26.67;50.08
48964;BME280;34776;48.180;16.420;2023-09-19T10:48:16;99648.78;;;26.75;48.71
48964;BME280;34776;48.180;16.420;2023-09-19T10:50:51;99647.09;;;26.89;48.05
48964;BME280;34776;48.180;16.420;2023-09-19T10:53:20;99641.34;;;26.69;48.35
48964;BME280;34776;48.180;16.420;2023-09-19T10:55:57;99652.91;;;26.71;46.72
48964;BME280;34776;48.180;16.420;2023-09-19T10:58:31;99639.09;;;26.87;48.92
48964;BME280;34776;48.180;16.420;2023-09-19T11:01:04;99644.09;;;26.99;48.58
48964;BME280;34776;48.180;16.420;2023-09-19T11:03:38;99633.72;;;27.09;48.22
48964;BME280;34776;48.180;16.420;2023-09-19T11:06:16;99648.94;;;27.18;46.36
48964;BME280;34776;48.180;16.420;2023-09-19T11:11:44;99641.78;;;27.47;45.40
48964;BME280;34776;48.180;16.420;2023-09-19T11:30:45;99641.13;;;27.15;45.58
48964;BME280;34776;48.180;16.420;2023-09-19T11:33:29;99638.78;;;27.12;44.94
48964;BME280;34776;48.180;16.420;2023-09-19T11:36:17;99633.81;;;27.16;45.20
48964;BME280;34776;48.180;16.420;2023-09-19T11:43:45;99632.28;;;28.07;44.06
48964;BME280;34776;48.180;16.420;2023-09-19T11:46:11;99637.88;;;28.21;43.82
48964;BME280;34776;48.180;16.420;2023-09-19T11:48:38;99624.22;;;28.21;43.82
48964;BME280;34776;48.180;16.420;2023-09-19T11:51:16;99631.25;;;28.37;43.42
48964;BME280;34776;48.180;16.420;2023-09-19T11:53:47;99629.59;;;28.64;43.56
48964;BME280;34776;48.180;16.420;2023-09-19T11:56:20;99636.34;;;29.03;42.14
48964;BME280;34776;48.180;16.420;2023-09-19T11:58:46;99629.94;;;29.24;41.97
48964;BME280;34776;48.180;16.420;2023-09-19T12:01:15;99633.16;;;29.41;41.44
48964;BME280;34776;48.180;16.420;2023-09-19T12:03:47;99627.88;;;29.46;40.96
48964;BME280;34776;48.180;16.420;2023-09-19T12:06:15;99617.41;;;29.08;40.37
48964;BME280;34776;48.180;16.420;2023-09-19T12:08:44;99628.19;;;28.46;40.83
48964;BME280;34776;48.180;16.420;2023-09-19T12:11:13;99627.84;;;28.28;42.38
48964;BME280;34776;48.180;16.420;2023-09-19T12:13:44;99631.97;;;28.17;41.87
48964;BME280;34776;48.180;16.420;2023-09-19T12:16:18;99634.31;;;27.77;42.98
48964;BME280;34776;48.180;16.420;2023-09-19T12:18:48;99625.66;;;27.52;42.89
48964;BME280;34776;48.180;16.420;2023-09-19T12:21:32;99633.72;;;27.60;42.17
48964;BME280;34776;48.180;16.420;2023-09-19T12:26:39;99620.72;;;28.27;41.52
48964;BME280;34776;48.180;16.420;2023-09-19T12:29:15;99625.47;;;28.46;40.77
48964;BME280;34776;48.180;16.420;2023-09-19T12:31:56;99629.53;;;28.29;40.49
48964;BME280;34776;48.180;16.420;2023-09-19T12:34:28;99628.84;;;28.48;39.66
48964;BME280;34776;48.180;16.420;2023-09-19T12:39:45;99637.53;;;28.30;40.61
48964;BME280;34776;48.180;16.420;2023-09-19T12:42:22;99626.53;;;28.24;40.45
48964;BME280;34776;48.180;16.420;2023-09-19T12:44:51;99629.28;;;28.24;40.58
48964;BME280;34776;48.180;16.420;2023-09-19T12:47:22;99641.78;;;28.33;40.20
48964;BME280;34776;48.180;16.420;2023-09-19T12:50:13;99645.63;;;28.45;39.63
48964;BME280;34776;48.180;16.420;2023-09-19T12:52:52;99642.06;;;28.73;40.45
48964;BME280;34776;48.180;16.420;2023-09-19T12:55:29;99649.72;;;29.19;39.71
48964;BME280;34776;48.180;16.420;2023-09-19T12:58:08;99634.88;;;29.48;37.18
48964;BME280;34776;48.180;16.420;2023-09-19T13:00:42;99638.19;;;29.44;38.28
48964;BME280;34776;48.180;16.420;2023-09-19T13:05:57;99644.06;;;29.27;38.25
48964;BME280;34776;48.180;16.420;2023-09-19T13:08:29;99629.28;;;29.15;37.67
48964;BME280;34776;48.180;16.420;2023-09-19T13:11:07;99634.41;;;28.97;37.34
48964;BME280;34776;48.180;16.420;2023-09-19T13:13:39;99647.28;;;29.03;38.48
48964;BME280;34776;48.180;16.420;2023-09-19T13:16:05;99633.34;;;28.98;38.40
48964;BME280;34776;48.180;16.420;2023-09-19T13:18:51;99636.69;;;29.28;37.69
48964;BME280;34776;48.180;16.420;2023-09-19T13:21:31;99634.81;;;29.42;37.07
48964;BME280;34776;48.180;16.420;2023-09-19T13:24:37;99646.66;;;29.49;36.76
48964;BME280;34776;48.180;16.420;2023-09-19T13:27:05;99632.50;;;29.39;37.33
48964;BME280;34776;48.180;16.420;2023-09-19T13:29:31;99651.34;;;28.79;37.88
48964;BME280;34776;48.180;16.420;2023-09-19T13:31:57;99644.47;;;28.54;38.48
48964;BME280;34776;48.180;16.420;2023-09-19T13:34:22;99638.38;;;28.52;38.60
48964;BME280;34776;48.180;16.420;2023-09-19T13:36:48;99626.03;;;28.63;37.47
48964;BME280;34776;48.180;16.420;2023-09-19T13:39:15;99647.94;;;28.70;37.71
48964;BME280;34776;48.180;16.420;2023-09-19T13:41:42;99642.50;;;28.77;36.96
48964;BME280;34776;48.180;16.420;2023-09-19T13:44:08;99642.78;;;28.88;36.99
48964;BME280;34776;48.180;16.420;2023-09-19T13:46:36;99640.56;;;29.05;37.00
48964;BME280;34776;48.180;16.420;2023-09-19T13:49:01;99637.31;;;29.30;36.55
48964;BME280;34776;48.180;16.420;2023-09-19T13:51:32;99640.72;;;29.32;36.08
48964;BME280;34776;48.180;16.420;2023-09-19T13:53:58;99639.91;;;29.45;36.49
48964;BME280;34776;48.180;16.420;2023-09-19T13:56:25;99629.94;;;29.30;36.26
48964;BME280;34776;48.180;16.420;2023-09-19T13:58:53;99640.22;;;29.15;36.62
48964;BME280;34776;48.180;16.420;2023-09-19T14:01:21;99631.66;;;28.90;37.22
48964;BME280;34776;48.180;16.420;2023-09-19T14:03:48;99643.53;;;28.69;37.53
48964;BME280;34776;48.180;16.420;2023-09-19T14:06:16;99640.44;;;28.50;37.57
48964;BME280;34776;48.180;16.420;2023-09-19T14:08:42;99638.47;;;28.44;37.99
48964;BME280;34776;48.180;16.420;2023-09-19T14:11:08;99639.47;;;28.37;37.97
48964;BME280;34776;48.180;16.420;2023-09-19T14:13:34;99636.97;;;28.13;38.73
48964;BME280;34776;48.180;16.420;2023-09-19T14:16:04;99639.28;;;27.88;38.22
48964;BME280;34776;48.180;16.420;2023-09-19T14:18:30;99634.59;;;27.46;39.16
48964;BME280;34776;48.180;16.420;2023-09-19T14:20:55;99631.94;;;27.52;39.32
48964;BME280;34776;48.180;16.420;2023-09-19T14:23:21;99628.13;;;27.68;38.89
48964;BME280;34776;48.180;16.420;2023-09-19T14:25:46;99627.28;;;27.68;38.59
48964;BME280;34776;48.180;16.420;2023-09-19T14:28:11;99630.34;;;27.58;39.53
48964;BME280;34776;48.180;16.420;2023-09-19T14:30:37;99628.50;;;27.65;38.81
48964;BME280;34776;48.180;16.420;2023-09-19T14:33:04;99626.75;;;27.58;39.10
48964;BME280;34776;48.180;16.420;2023-09-19T14:35:30;99632.50;;;27.26;38.89
48964;BME280;34776;48.180;16.420;2023-09-19T14:37:55;99631.19;;;27.07;39.75
48964;BME280;34776;48.180;16.420;2023-09-19T14:40:20;99635.25;;;26.97;39.83
48964;BME280;34776;48.180;16.420;2023-09-19T14:42:47;99630.72;;;27.04;39.94
48964;BME280;34776;48.180;16.420;2023-09-19T14:45:13;99634.00;;;27.14;39.92
48964;BME280;34776;48.180;16.420;2023-09-19T14:47:43;99636.72;;;27.14;39.90
48964;BME280;34776;48.180;16.420;2023-09-19T14:50:09;99628.09;;;26.96;39.71
48964;BME280;34776;48.180;16.420;2023-09-19T14:52:35;99637.50;;;26.78;40.02
48964;BME280;34776;48.180;16.420;2023-09-19T14:55:01;99641.06;;;26.64;40.39
48964;BME280;34776;48.180;16.420;2023-09-19T14:57:27;99638.88;;;26.44;40.79
48964;BME280;34776;48.180;16.420;2023-09-19T14:59:52;99640.84;;;26.36;41.02
48964;BME280;34776;48.180;16.420;2023-09-19T15:02:17;99632.63;;;26.21;41.04
48964;BME280;34776;48.180;16.420;2023-09-19T15:04:43;99635.44;;;26.12;41.58
48964;BME280;34776;48.180;16.420;2023-09-19T15:07:15;99642.56;;;26.13;41.81
48964;BME280;34776;48.180;16.420;2023-09-19T15:09:44;99644.69;;;26.03;42.02
48964;BME280;34776;48.180;16.420;2023-09-19T15:12:09;99646.75;;;26.01;41.89
48964;BME280;34776;48.180;16.420;2023-09-19T15:14:39;99650.75;;;25.90;42.01
48964;BME280;34776;48.180;16.420;2023-09-19T15:17:04;99649.69;;;25.68;42.50
48964;BME280;34776;48.180;16.420;2023-09-19T15:19:30;99656.25;;;25.51;42.89
48964;BME280;34776;48.180;16.420;2023-09-19T15:21:55;99657.69;;;25.39;43.15
48964;BME280;34776;48.180;16.420;2023-09-19T15:24:21;99647.38;;;25.26;43.66
48964;BME280;34776;48.180;16.420;2023-09-19T15:26:46;99658.25;;;25.26;43.83
48964;BME280;34776;48.180;16.420;2023-09-19T15:29:12;99661.19;;;25.24;44.01
48964;BME280;34776;48.180;16.420;2023-09-19T15:31:38;99663.69;;;25.26;44.45
48964;BME280;34776;48.180;16.420;2023-09-19T15:34:04;99661.50;;;25.21;44.62
48964;BME280;34776;48.180;16.420;2023-09-19T15:36:32;99670.34;;;25.15;44.67
48964;BME280;34776;48.180;16.420;2023-09-19T15:39:06;99667.34;;;25.02;44.65
48964;BME280;34776;48.180;16.420;2023-09-19T15:41:33;99660.56;;;24.98;45.13
48964;BME280;34776;48.180;16.420;2023-09-19T15:44:01;99658.84;;;24.97;45.10
48964;BME280;34776;48.180;16.420;2023-09-19T15:46:27;99656.34;;;24.95;45.18
48964;BME280;34776;48.180;16.420;2023-09-19T15:48:56;99653.66;;;24.87;45.14
48964;BME280;34776;48.180;16.420;2023-09-19T15:51:22;99664.72;;;24.77;45.40
48964;BME280;34776;48.180;16.420;2023-09-19T15:53:49;99669.84;;;24.64;45.37
48964;BME280;34776;48.180;16.420;2023-09-19T15:56:15;99664.06;;;24.50;45.36
48964;BME280;34776;48.180;16.420;2023-09-19T15:58:44;99660.69;;;24.48;45.90
48964;BME280;34776;48.180;16.420;2023-09-19T16:01:10;99665.09;;;24.41;45.69
48964;BME280;34776;48.180;16.420;2023-09-19T16:03:40;99668.19;;;24.30;46.23
48964;BME280;34776;48.180;16.420;2023-09-19T16:06:16;99666.81;;;24.26;46.18
48964;BME280;34776;48.180;16.420;2023-09-19T16:08:53;99665.47;;;24.22;46.44
48964;BME280;34776;48.180;16.420;2023-09-19T16:11:20;99663.06;;;24.19;46.44
48964;BME280;34776;48.180;16.420;2023-09-19T16:13:47;99655.97;;;24.09;46.55
48964;BME280;34776;48.180;16.420;2023-09-19T16:16:13;99659.34;;;23.95;46.57
48964;BME280;34776;48.180;16.420;2023-09-19T16:18:51;99669.50;;;23.85;46.38
48964;BME280;34776;48.180;16.420;2023-09-19T16:21:17;99669.34;;;23.78;46.82
48964;BME280;34776;48.180;16.420;2023-09-19T16:23:47;99670.13;;;23.70;47.06
48964;BME280;34776;48.180;16.420;2023-09-19T16:26:13;99669.97;;;23.64;47.06
48964;BME280;34776;48.180;16.420;2023-09-19T16:28:40;99669.47;;;23.60;47.23
48964;BME280;34776;48.180;16.420;2023-09-19T16:31:06;99672.84;;;23.54;47.46
48964;BME280;34776;48.180;16.420;2023-09-19T16:33:36;99663.50;;;23.48;47.46
48964;BME280;34776;48.180;16.420;2023-09-19T16:36:07;99665.34;;;23.40;47.33
48964;BME280;34776;48.180;16.420;2023-09-19T16:38:33;99675.13;;;23.33;47.37
48964;BME280;34776;48.180;16.420;2023-09-19T16:40:59;99671.38;;;23.25;47.57
48964;BME280;34776;48.180;16.420;2023-09-19T16:43:27;99669.34;;;23.19;47.73
48964;BME280;34776;48.180;16.420;2023-09-19T16:45:58;99667.44;;;23.12;47.73
48964;BME280;34776;48.180;16.420;2023-09-19T16:48:25;99667.22;;;23.05;48.19
48964;BME280;34776;48.180;16.420;2023-09-19T16:50:53;99668.88;;;22.98;48.71
48964;BME280;34776;48.180;16.420;2023-09-19T16:53:19;99669.84;;;22.88;48.70
48964;BME280;34776;48.180;16.420;2023-09-19T16:55:46;99664.38;;;22.80;49.13
48964;BME280;34776;48.180;16.420;2023-09-19T16:58:12;99662.16;;;22.76;49.25
48964;BME280;34776;48.180;16.420;2023-09-19T17:00:39;99670.75;;;22.71;49.52
48964;BME280;34776;48.180;16.420;2023-09-19T17:03:06;99684.78;;;22.66;49.74
48964;BME280;34776;48.180;16.420;2023-09-19T17:05:33;99677.44;;;22.59;50.20
48964;BME280;34776;48.180;16.420;2023-09-19T17:07:58;99677.41;;;22.50;50.55
48964;BME280;34776;48.180;16.420;2023-09-19T17:10:24;99679.06;;;22.43;50.83
48964;BME280;34776;48.180;16.420;2023-09-19T17:12:55;99690.50;;;22.37;51.36
48964;BME280;34776;48.180;16.420;2023-09-19T17:15:21;99689.97;;;22.34;51.35
48964;BME280;34776;48.180;16.420;2023-09-19T17:17:49;99689.59;;;22.28;51.66
48964;BME280;34776;48.180;16.420;2023-09-19T17:20:15;99689.50;;;22.20;51.94
48964;BME280;34776;48.180;16.420;2023-09-19T17:22:42;99692.34;;;22.19;52.23
48964;BME280;34776;48.180;16.420;2023-09-19T17:25:08;99691.31;;;22.12;52.64